sensor_id;sensor_type;location;lat;lon;timestamp;temperature;humidity
51725;DHT22;37801;53.224;6.552;2022-07-21T00:00:26;20.90;99.90
51725;DHT22;37801;53.224;6.552;2022-07-21T00:02:52;20.90;99.90
51725;DHT22;37801;53.224;6.552;2022-07-21T00:05:18;20.90;99.90
51725;DHT22;37801;53.224;6.552;2022-07-21T00:07:44;20.90;99.90
51725;DHT22;37801;53.224;6.552;2022-07-21T00:10:11;20.90;99.90
51725;DHT22;37801;53.224;6.552;2022-07-21T00:12:36;20.90;99.90
51725;DHT22;37801;53.224;6.552;2022-07-21T00:15:04;20.90;99.90
51725;DHT22;37801;53.224;6.552;2022-07-21T00:17:30;20.90;99.90
51725;DHT22;37801;53.224;6.552;2022-07-21T00:19:56;20.90;99.90
51725;DHT22;37801;53.224;6.552;2022-07-21T00:22:21;20.90;99.90
51725;DHT22;37801;53.224;6.552;2022-07-21T00:24:49;20.90;99.90
51725;DHT22;37801;53.224;6.552;2022-07-21T00:27:15;20.90;99.90
51725;DHT22;37801;53.224;6.552;2022-07-21T00:29:41;20.90;99.90
51725;DHT22;37801;53.224;6.552;2022-07-21T00:32:07;20.90;99.90
51725;DHT22;37801;53.224;6.552;2022-07-21T00:34:33;20.90;99.90
51725;DHT22;37801;53.224;6.552;2022-07-21T00:36:59;20.90;99.90
51725;DHT22;37801;53.224;6.552;2022-07-21T00:39:24;20.90;99.90
51725;DHT22;37801;53.224;6.552;2022-07-21T00:41:51;20.90;99.90
51725;DHT22;37801;53.224;6.552;2022-07-21T00:44:26;20.90;99.90
51725;DHT22;37801;53.224;6.552;2022-07-21T00:46:53;20.90;99.90
51725;DHT22;37801;53.224;6.552;2022-07-21T00:49:19;20.90;99.90
51725;DHT22;37801;53.224;6.552;2022-07-21T00:51:46;20.90;99.90
51725;DHT22;37801;53.224;6.552;2022-07-21T00:54:13;20.90;99.90
51725;DHT22;37801;53.224;6.552;2022-07-21T00:56:39;20.90;99.90
51725;DHT22;37801;53.224;6.552;2022-07-21T00:59:05;20.90;99.90
51725;DHT22;37801;53.224;6.552;2022-07-21T01:01:31;20.90;99.90
51725;DHT22;37801;53.224;6.552;2022-07-21T01:03:57;20.90;99.90
51725;DHT22;37801;53.224;6.552;2022-07-21T01:06:26;20.80;99.90
51725;DHT22;37801;53.224;6.552;2022-07-21T01:08:53;20.60;99.90
51725;DHT22;37801;53.224;6.552;2022-07-21T01:11:20;20.30;99.90
51725;DHT22;37801;53.224;6.552;2022-07-21T01:13:47;20.20;99.90
51725;DHT22;37801;53.224;6.552;2022-07-21T01:16:13;20.00;99.90
51725;DHT22;37801;53.224;6.552;2022-07-21T01:18:39;19.90;99.90
51725;DHT22;37801;53.224;6.552;2022-07-21T01:23:58;19.70;99.90
51725;DHT22;37801;53.224;6.552;2022-07-21T01:26:24;19.70;99.90
51725;DHT22;37801;53.224;6.552;2022-07-21T01:28:50;19.70;99.90
51725;DHT22;37801;53.224;6.552;2022-07-21T01:31:16;19.60;99.90
51725;DHT22;37801;53.224;6.552;2022-07-21T01:33:42;19.60;99.90
51725;DHT22;37801;53.224;6.552;2022-07-21T01:36:08;19.60;99.90
51725;DHT22;37801;53.224;6.552;2022-07-21T01:38:34;19.50;99.90
51725;DHT22;37801;53.224;6.552;2022-07-21T01:41:18;19.50;99.90
51725;DHT22;37801;53.224;6.552;2022-07-21T01:44:01;19.50;99.90
51725;DHT22;37801;53.224;6.552;2022-07-21T01:46:28;19.40;99.90
51725;DHT22;37801;53.224;6.552;2022-07-21T01:48:54;19.40;99.90
51725;DHT22;37801;53.224;6.552;2022-07-21T01:51:20;19.40;99.90
51725;DHT22;37801;53.224;6.552;2022-07-21T01:53:48;19.50;99.90
51725;DHT22;37801;53.224;6.552;2022-07-21T01:56:13;19.50;99.90
51725;DHT22;37801;53.224;6.552;2022-07-21T01:58:39;19.50;99.90
51725;DHT22;37801;53.224;6.552;2022-07-21T02:01:05;19.40;99.90
51725;DHT22;37801;53.224;6.552;2022-07-21T02:03:31;19.40;99.90
51725;DHT22;37801;53.224;6.552;2022-07-21T02:06:04;19.40;99.90
51725;DHT22;37801;53.224;6.552;2022-07-21T02:08:31;19.40;99.90
51725;DHT22;37801;53.224;6.552;2022-07-21T02:10:58;19.40;99.90
51725;DHT22;37801;53.224;6.552;2022-07-21T02:13:23;19.40;99.90
51725;DHT22;37801;53.224;6.552;2022-07-21T02:15:49;19.40;99.90
51725;DHT22;37801;53.224;6.552;2022-07-21T02:18:15;19.50;99.90
51725;DHT22;37801;53.224;6.552;2022-07-21T02:20:41;19.40;99.90
51725;DHT22;37801;53.224;6.552;2022-07-21T02:23:07;19.40;99.90
51725;DHT22;37801;53.224;6.552;2022-07-21T02:25:32;19.30;99.90
51725;DHT22;37801;53.224;6.552;2022-07-21T02:27:58;19.40;99.90
51725;DHT22;37801;53.224;6.552;2022-07-21T02:30:26;19.30;99.90
51725;DHT22;37801;53.224;6.552;2022-07-21T02:32:52;19.30;99.90
51725;DHT22;37801;53.224;6.552;2022-07-21T02:35:19;19.30;99.90
51725;DHT22;37801;53.224;6.552;2022-07-21T02:37:44;19.30;99.90
51725;DHT22;37801;53.224;6.552;2022-07-21T02:40:10;19.30;99.90
51725;DHT22;37801;53.224;6.552;2022-07-21T02:42:36;19.30;99.90
51725;DHT22;37801;53.224;6.552;2022-07-21T02:45:05;19.30;99.90
51725;DHT22;37801;53.224;6.552;2022-07-21T02:47:31;19.20;99.90
51725;DHT22;37801;53.224;6.552;2022-07-21T02:49:57;19.30;99.90
51725;DHT22;37801;53.224;6.552;2022-07-21T02:52:23;19.30;99.90
51725;DHT22;37801;53.224;6.552;2022-07-21T02:54:48;19.20;99.90
51725;DHT22;37801;53.224;6.552;2022-07-21T02:57:14;19.30;99.90
51725;DHT22;37801;53.224;6.552;2022-07-21T02:59:40;19.30;99.90
51725;DHT22;37801;53.224;6.552;2022-07-21T03:02:06;19.10;99.90
51725;DHT22;37801;53.224;6.552;2022-07-21T03:04:31;19.20;99.90
51725;DHT22;37801;53.224;6.552;2022-07-21T03:06:57;19.10;99.90
51725;DHT22;37801;53.224;6.552;2022-07-21T03:09:24;19.20;99.90
51725;DHT22;37801;53.224;6.552;2022-07-21T03:11:49;19.10;99.90
51725;DHT22;37801;53.224;6.552;2022-07-21T03:14:15;19.20;99.90
51725;DHT22;37801;53.224;6.552;2022-07-21T03:16:41;19.20;99.90
51725;DHT22;37801;53.224;6.552;2022-07-21T03:19:07;19.20;99.90
51725;DHT22;37801;53.224;6.552;2022-07-21T03:21:35;19.10;99.90
51725;DHT22;37801;53.224;6.552;2022-07-21T03:24:00;19.30;99.90
51725;DHT22;37801;53.224;6.552;2022-07-21T03:26:26;19.20;99.90
51725;DHT22;37801;53.224;6.552;2022-07-21T03:28:52;19.20;99.90
51725;DHT22;37801;53.224;6.552;2022-07-21T03:31:18;19.30;99.90
51725;DHT22;37801;53.224;6.552;2022-07-21T03:33:44;19.20;99.90
51725;DHT22;37801;53.224;6.552;2022-07-21T03:36:09;19.30;99.90
51725;DHT22;37801;53.224;6.552;2022-07-21T03:38:35;19.30;99.90
51725;DHT22;37801;53.224;6.552;2022-07-21T03:41:03;19.30;99.90
51725;DHT22;37801;53.224;6.552;2022-07-21T03:43:29;19.30;99.90
51725;DHT22;37801;53.224;6.552;2022-07-21T03:45:55;19.30;99.90
51725;DHT22;37801;53.224;6.552;2022-07-21T03:48:21;19.30;99.90
51725;DHT22;37801;53.224;6.552;2022-07-21T03:50:47;19.40;99.90
51725;DHT22;37801;53.224;6.552;2022-07-21T03:53:12;19.40;99.90
51725;DHT22;37801;53.224;6.552;2022-07-21T03:55:38;19.20;99.90
51725;DHT22;37801;53.224;6.552;2022-07-21T03:58:05;19.30;99.90
51725;DHT22;37801;53.224;6.552;2022-07-21T04:00:37;19.20;99.90
51725;DHT22;37801;53.224;6.552;2022-07-21T04:03:03;19.30;99.90
51725;DHT22;37801;53.224;6.552;2022-07-21T04:05:29;19.30;99.90
51725;DHT22;37801;53.224;6.552;2022-07-21T04:07:56;19.20;99.90
51725;DHT22;37801;53.224;6.552;2022-07-21T04:10:27;19.20;99.90
51725;DHT22;37801;53.224;6.552;2022-07-21T04:12:54;19.30;99.90
51725;DHT22;37801;53.224;6.552;2022-07-21T04:15:20;19.20;99.90
51725;DHT22;37801;53.224;6.552;2022-07-21T04:17:52;19.20;99.90
51725;DHT22;37801;53.224;6.552;2022-07-21T04:20:18;19.20;99.90
51725;DHT22;37801;53.224;6.552;2022-07-21T04:22:46;19.30;99.90
51725;DHT22;37801;53.224;6.552;2022-07-21T04:25:12;19.20;99.90
51725;DHT22;37801;53.224;6.552;2022-07-21T04:27:38;19.30;99.90
51725;DHT22;37801;53.224;6.552;2022-07-21T04:30:05;19.10;99.90
51725;DHT22;37801;53.224;6.552;2022-07-21T04:32:31;19.20;99.90
51725;DHT22;37801;53.224;6.552;2022-07-21T04:35:00;19.20;99.90
51725;DHT22;37801;53.224;6.552;2022-07-21T04:37:27;19.30;99.90
51725;DHT22;37801;53.224;6.552;2022-07-21T04:39:53;19.10;99.90
51725;DHT22;37801;53.224;6.552;2022-07-21T04:42:19;19.10;99.90
51725;DHT22;37801;53.224;6.552;2022-07-21T04:44:53;19.20;99.90
51725;DHT22;37801;53.224;6.552;2022-07-21T04:47:19;19.40;99.90
51725;DHT22;37801;53.224;6.552;2022-07-21T04:49:45;19.20;99.90
51725;DHT22;37801;53.224;6.552;2022-07-21T04:52:11;19.10;99.90
51725;DHT22;37801;53.224;6.552;2022-07-21T04:54:40;19.30;99.90
51725;DHT22;37801;53.224;6.552;2022-07-21T04:57:06;19.00;99.90
51725;DHT22;37801;53.224;6.552;2022-07-21T04:59:32;19.60;99.90
51725;DHT22;37801;53.224;6.552;2022-07-21T05:01:59;19.60;99.90
51725;DHT22;37801;53.224;6.552;2022-07-21T05:04:26;19.10;99.90
51725;DHT22;37801;53.224;6.552;2022-07-21T05:06:52;19.00;99.90
51725;DHT22;37801;53.224;6.552;2022-07-21T05:09:17;19.60;99.90
51725;DHT22;37801;53.224;6.552;2022-07-21T05:11:43;19.50;99.90
51725;DHT22;37801;53.224;6.552;2022-07-21T05:14:09;19.20;99.90
51725;DHT22;37801;53.224;6.552;2022-07-21T05:16:35;19.40;99.90
51725;DHT22;37801;53.224;6.552;2022-07-21T05:19:01;19.50;99.90
51725;DHT22;37801;53.224;6.552;2022-07-21T05:21:27;19.40;99.90
51725;DHT22;37801;53.224;6.552;2022-07-21T05:23:52;19.60;99.90
51725;DHT22;37801;53.224;6.552;2022-07-21T05:26:18;19.50;99.90
51725;DHT22;37801;53.224;6.552;2022-07-21T05:28:44;19.50;99.90
51725;DHT22;37801;53.224;6.552;2022-07-21T05:31:10;19.50;99.90
51725;DHT22;37801;53.224;6.552;2022-07-21T05:33:36;19.70;99.90
51725;DHT22;37801;53.224;6.552;2022-07-21T05:36:03;19.70;99.90
51725;DHT22;37801;53.224;6.552;2022-07-21T05:38:29;19.70;99.90
51725;DHT22;37801;53.224;6.552;2022-07-21T05:40:55;19.40;99.90
51725;DHT22;37801;53.224;6.552;2022-07-21T05:43:21;19.40;99.90
51725;DHT22;37801;53.224;6.552;2022-07-21T05:45:47;19.50;99.90
51725;DHT22;37801;53.224;6.552;2022-07-21T05:48:13;19.30;99.90
51725;DHT22;37801;53.224;6.552;2022-07-21T05:50:39;19.70;99.90
51725;DHT22;37801;53.224;6.552;2022-07-21T05:53:05;19.40;99.90
51725;DHT22;37801;53.224;6.552;2022-07-21T05:55:31;19.30;99.90
51725;DHT22;37801;53.224;6.552;2022-07-21T05:57:57;19.30;99.90
51725;DHT22;37801;53.224;6.552;2022-07-21T06:00:25;19.70;99.90
51725;DHT22;37801;53.224;6.552;2022-07-21T06:02:51;19.70;99.90
51725;DHT22;37801;53.224;6.552;2022-07-21T06:05:17;19.30;99.90
51725;DHT22;37801;53.224;6.552;2022-07-21T06:07:43;19.80;99.90
51725;DHT22;37801;53.224;6.552;2022-07-21T06:10:09;19.80;99.90
51725;DHT22;37801;53.224;6.552;2022-07-21T06:12:35;19.30;99.90
51725;DHT22;37801;53.224;6.552;2022-07-21T06:15:01;19.70;99.90
51725;DHT22;37801;53.224;6.552;2022-07-21T06:17:27;19.80;99.90
51725;DHT22;37801;53.224;6.552;2022-07-21T06:19:57;19.30;99.90
51725;DHT22;37801;53.224;6.552;2022-07-21T06:22:24;19.20;99.90
51725;DHT22;37801;53.224;6.552;2022-07-21T06:24:50;19.70;99.90
51725;DHT22;37801;53.224;6.552;2022-07-21T06:27:16;19.30;99.90
51725;DHT22;37801;53.224;6.552;2022-07-21T06:29:42;19.90;99.90
51725;DHT22;37801;53.224;6.552;2022-07-21T06:32:07;19.90;99.90
51725;DHT22;37801;53.224;6.552;2022-07-21T06:34:33;19.90;99.90
51725;DHT22;37801;53.224;6.552;2022-07-21T06:36:59;19.80;99.90
51725;DHT22;37801;53.224;6.552;2022-07-21T06:39:25;19.30;99.90
51725;DHT22;37801;53.224;6.552;2022-07-21T06:41:51;19.60;99.90
51725;DHT22;37801;53.224;6.552;2022-07-21T06:44:16;19.50;99.90
51725;DHT22;37801;53.224;6.552;2022-07-21T06:46:42;19.70;99.90
51725;DHT22;37801;53.224;6.552;2022-07-21T06:49:08;19.10;99.90
51725;DHT22;37801;53.224;6.552;2022-07-21T06:51:34;19.60;99.90
51725;DHT22;37801;53.224;6.552;2022-07-21T06:53:59;19.80;99.90
51725;DHT22;37801;53.224;6.552;2022-07-21T06:56:25;19.80;99.90
51725;DHT22;37801;53.224;6.552;2022-07-21T06:58:51;19.30;99.90
51725;DHT22;37801;53.224;6.552;2022-07-21T07:01:16;19.90;99.90
51725;DHT22;37801;53.224;6.552;2022-07-21T07:03:44;20.00;99.90
51725;DHT22;37801;53.224;6.552;2022-07-21T07:06:11;19.40;99.90
51725;DHT22;37801;53.224;6.552;2022-07-21T07:08:37;19.40;99.90
51725;DHT22;37801;53.224;6.552;2022-07-21T07:11:04;19.90;99.90
51725;DHT22;37801;53.224;6.552;2022-07-21T07:13:30;20.00;99.90
51725;DHT22;37801;53.224;6.552;2022-07-21T07:15:55;20.00;99.90
51725;DHT22;37801;53.224;6.552;2022-07-21T07:18:21;19.70;99.90
51725;DHT22;37801;53.224;6.552;2022-07-21T07:20:49;19.80;99.90
51725;DHT22;37801;53.224;6.552;2022-07-21T07:23:16;20.10;99.90
51725;DHT22;37801;53.224;6.552;2022-07-21T07:25:42;19.60;99.90
51725;DHT22;37801;53.224;6.552;2022-07-21T07:28:08;19.50;99.90
51725;DHT22;37801;53.224;6.552;2022-07-21T07:30:34;19.60;99.90
51725;DHT22;37801;53.224;6.552;2022-07-21T07:33:00;20.00;99.90
51725;DHT22;37801;53.224;6.552;2022-07-21T07:35:26;19.50;99.90
51725;DHT22;37801;53.224;6.552;2022-07-21T07:37:52;19.40;99.90
51725;DHT22;37801;53.224;6.552;2022-07-21T07:40:21;19.50;99.90
51725;DHT22;37801;53.224;6.552;2022-07-21T07:42:48;19.30;99.90
51725;DHT22;37801;53.224;6.552;2022-07-21T07:45:14;19.70;99.90
51725;DHT22;37801;53.224;6.552;2022-07-21T07:47:40;19.50;99.90
51725;DHT22;37801;53.224;6.552;2022-07-21T07:50:09;19.90;99.90
51725;DHT22;37801;53.224;6.552;2022-07-21T07:52:36;19.40;99.90
51725;DHT22;37801;53.224;6.552;2022-07-21T07:55:03;19.70;99.90
51725;DHT22;37801;53.224;6.552;2022-07-21T07:57:32;19.30;99.90
51725;DHT22;37801;53.224;6.552;2022-07-21T07:59:58;19.50;99.90
51725;DHT22;37801;53.224;6.552;2022-07-21T08:02:24;19.60;99.90
51725;DHT22;37801;53.224;6.552;2022-07-21T08:04:50;19.70;99.90
51725;DHT22;37801;53.224;6.552;2022-07-21T08:07:16;19.70;99.90
51725;DHT22;37801;53.224;6.552;2022-07-21T08:09:41;19.50;99.90
51725;DHT22;37801;53.224;6.552;2022-07-21T08:12:07;19.80;99.90
51725;DHT22;37801;53.224;6.552;2022-07-21T08:14:33;19.90;99.90
51725;DHT22;37801;53.224;6.552;2022-07-21T08:16:59;19.80;99.90
51725;DHT22;37801;53.224;6.552;2022-07-21T08:19:26;19.80;99.90
51725;DHT22;37801;53.224;6.552;2022-07-21T08:21:52;19.80;99.90
51725;DHT22;37801;53.224;6.552;2022-07-21T08:24:18;19.60;99.90
51725;DHT22;37801;53.224;6.552;2022-07-21T08:26:43;19.90;99.90
51725;DHT22;37801;53.224;6.552;2022-07-21T08:29:10;19.60;99.90
51725;DHT22;37801;53.224;6.552;2022-07-21T08:31:35;19.80;99.90
51725;DHT22;37801;53.224;6.552;2022-07-21T08:34:01;19.60;99.90
51725;DHT22;37801;53.224;6.552;2022-07-21T08:36:27;19.80;99.90
51725;DHT22;37801;53.224;6.552;2022-07-21T08:38:53;19.90;99.90
51725;DHT22;37801;53.224;6.552;2022-07-21T08:41:19;19.80;99.90
51725;DHT22;37801;53.224;6.552;2022-07-21T08:43:45;19.90;99.90
51725;DHT22;37801;53.224;6.552;2022-07-21T08:46:13;20.00;99.90
51725;DHT22;37801;53.224;6.552;2022-07-21T08:48:40;19.90;99.90
51725;DHT22;37801;53.224;6.552;2022-07-21T08:51:06;20.00;99.90
51725;DHT22;37801;53.224;6.552;2022-07-21T08:53:32;20.10;99.90
51725;DHT22;37801;53.224;6.552;2022-07-21T08:55:58;20.10;99.90
51725;DHT22;37801;53.224;6.552;2022-07-21T08:58:24;20.20;99.90
51725;DHT22;37801;53.224;6.552;2022-07-21T09:00:50;20.20;99.90
51725;DHT22;37801;53.224;6.552;2022-07-21T09:06:05;20.40;99.90
51725;DHT22;37801;53.224;6.552;2022-07-21T09:08:35;20.30;99.90
51725;DHT22;37801;53.224;6.552;2022-07-21T09:11:21;20.40;99.90
51725;DHT22;37801;53.224;6.552;2022-07-21T09:14:07;20.40;99.90
51725;DHT22;37801;53.224;6.552;2022-07-21T09:16:39;20.40;99.90
51725;DHT22;37801;53.224;6.552;2022-07-21T09:19:06;20.40;99.90
51725;DHT22;37801;53.224;6.552;2022-07-21T09:21:33;20.40;99.90
51725;DHT22;37801;53.224;6.552;2022-07-21T09:24:16;20.40;99.90
51725;DHT22;37801;53.224;6.552;2022-07-21T09:27:08;20.30;99.90
51725;DHT22;37801;53.224;6.552;2022-07-21T09:30:01;20.40;99.90
51725;DHT22;37801;53.224;6.552;2022-07-21T09:34:57;20.40;99.90
51725;DHT22;37801;53.224;6.552;2022-07-21T09:37:24;20.50;99.90
51725;DHT22;37801;53.224;6.552;2022-07-21T09:39:53;20.50;99.90
51725;DHT22;37801;53.224;6.552;2022-07-21T09:42:27;20.50;99.90
51725;DHT22;37801;53.224;6.552;2022-07-21T09:44:58;20.60;99.90
51725;DHT22;37801;53.224;6.552;2022-07-21T09:47:29;20.70;99.90
51725;DHT22;37801;53.224;6.552;2022-07-21T09:49:57;21.00;99.90
51725;DHT22;37801;53.224;6.552;2022-07-21T09:52:36;21.00;99.90
51725;DHT22;37801;53.224;6.552;2022-07-21T09:55:06;21.20;99.90
51725;DHT22;37801;53.224;6.552;2022-07-21T09:57:33;21.30;99.90
51725;DHT22;37801;53.224;6.552;2022-07-21T10:00:00;21.60;99.90
51725;DHT22;37801;53.224;6.552;2022-07-21T10:02:27;21.80;99.90
51725;DHT22;37801;53.224;6.552;2022-07-21T10:05:03;22.00;99.90
51725;DHT22;37801;53.224;6.552;2022-07-21T10:07:31;22.20;99.90
51725;DHT22;37801;53.224;6.552;2022-07-21T10:09:57;22.30;99.90
51725;DHT22;37801;53.224;6.552;2022-07-21T10:12:25;22.30;99.90
51725;DHT22;37801;53.224;6.552;2022-07-21T10:14:50;22.30;99.90
51725;DHT22;37801;53.224;6.552;2022-07-21T10:17:18;22.40;99.90
51725;DHT22;37801;53.224;6.552;2022-07-21T10:25:35;22.20;99.90
51725;DHT22;37801;53.224;6.552;2022-07-21T10:30:42;22.40;99.90
51725;DHT22;37801;53.224;6.552;2022-07-21T10:33:08;22.50;99.90
51725;DHT22;37801;53.224;6.552;2022-07-21T10:35:34;22.40;99.90
51725;DHT22;37801;53.224;6.552;2022-07-21T10:38:01;22.50;99.90
51725;DHT22;37801;53.224;6.552;2022-07-21T10:45:39;22.60;99.90
51725;DHT22;37801;53.224;6.552;2022-07-21T10:48:08;22.60;99.90
51725;DHT22;37801;53.224;6.552;2022-07-21T10:50:39;22.60;99.90
51725;DHT22;37801;53.224;6.552;2022-07-21T10:53:13;22.70;99.90
51725;DHT22;37801;53.224;6.552;2022-07-21T10:55:46;22.70;99.90
51725;DHT22;37801;53.224;6.552;2022-07-21T10:58:30;22.70;99.90
51725;DHT22;37801;53.224;6.552;2022-07-21T11:01:00;22.70;99.90
51725;DHT22;37801;53.224;6.552;2022-07-21T11:11:31;22.70;99.90
51725;DHT22;37801;53.224;6.552;2022-07-21T11:14:02;22.80;99.90
51725;DHT22;37801;53.224;6.552;2022-07-21T11:19:47;22.90;99.90
51725;DHT22;37801;53.224;6.552;2022-07-21T11:24:47;23.00;99.90
51725;DHT22;37801;53.224;6.552;2022-07-21T11:27:18;23.10;99.90
51725;DHT22;37801;53.224;6.552;2022-07-21T11:29:47;23.20;99.90
51725;DHT22;37801;53.224;6.552;2022-07-21T11:32:14;23.30;99.90
51725;DHT22;37801;53.224;6.552;2022-07-21T11:37:10;23.50;99.90
51725;DHT22;37801;53.224;6.552;2022-07-21T11:39:37;23.60;99.90
51725;DHT22;37801;53.224;6.552;2022-07-21T11:42:08;23.60;99.90
51725;DHT22;37801;53.224;6.552;2022-07-21T11:44:34;23.60;99.90
51725;DHT22;37801;53.224;6.552;2022-07-21T11:47:02;23.60;99.90
51725;DHT22;37801;53.224;6.552;2022-07-21T11:49:29;23.50;99.90
51725;DHT22;37801;53.224;6.552;2022-07-21T11:54:30;23.40;99.90
51725;DHT22;37801;53.224;6.552;2022-07-21T11:56:58;23.40;99.90
51725;DHT22;37801;53.224;6.552;2022-07-21T11:59:24;23.40;99.90
51725;DHT22;37801;53.224;6.552;2022-07-21T12:01:59;23.40;99.90
51725;DHT22;37801;53.224;6.552;2022-07-21T12:04:38;23.50;99.90
51725;DHT22;37801;53.224;6.552;2022-07-21T12:07:28;23.50;99.90
51725;DHT22;37801;53.224;6.552;2022-07-21T12:09:55;23.60;99.90
51725;DHT22;37801;53.224;6.552;2022-07-21T12:12:50;23.60;99.90
51725;DHT22;37801;53.224;6.552;2022-07-21T12:15:24;23.60;99.90
51725;DHT22;37801;53.224;6.552;2022-07-21T12:18:00;23.60;99.90
51725;DHT22;37801;53.224;6.552;2022-07-21T12:23:00;23.60;99.90
51725;DHT22;37801;53.224;6.552;2022-07-21T12:25:35;23.60;99.90
51725;DHT22;37801;53.224;6.552;2022-07-21T12:28:03;23.50;99.90
51725;DHT22;37801;53.224;6.552;2022-07-21T12:30:40;23.40;99.90
51725;DHT22;37801;53.224;6.552;2022-07-21T12:33:16;23.40;99.90
51725;DHT22;37801;53.224;6.552;2022-07-21T12:35:44;23.40;99.90
51725;DHT22;37801;53.224;6.552;2022-07-21T12:38:16;23.50;99.90
51725;DHT22;37801;53.224;6.552;2022-07-21T12:40:49;23.50;99.90
51725;DHT22;37801;53.224;6.552;2022-07-21T12:43:21;23.40;99.90
51725;DHT22;37801;53.224;6.552;2022-07-21T12:45:57;23.30;99.90
51725;DHT22;37801;53.224;6.552;2022-07-21T12:53:47;23.40;99.90
51725;DHT22;37801;53.224;6.552;2022-07-21T12:56:17;23.40;99.90
51725;DHT22;37801;53.224;6.552;2022-07-21T12:58:44;23.30;99.90
51725;DHT22;37801;53.224;6.552;2022-07-21T13:01:10;23.30;99.90
51725;DHT22;37801;53.224;6.552;2022-07-21T13:03:36;23.20;99.90
51725;DHT22;37801;53.224;6.552;2022-07-21T13:06:04;23.20;99.90
51725;DHT22;37801;53.224;6.552;2022-07-21T13:08:31;23.10;99.90
51725;DHT22;37801;53.224;6.552;2022-07-21T13:10:57;23.10;99.90
51725;DHT22;37801;53.224;6.552;2022-07-21T13:13:24;23.10;99.90
51725;DHT22;37801;53.224;6.552;2022-07-21T13:15:49;23.10;99.90
51725;DHT22;37801;53.224;6.552;2022-07-21T13:18:15;23.00;99.90
51725;DHT22;37801;53.224;6.552;2022-07-21T13:20:41;23.00;99.90
51725;DHT22;37801;53.224;6.552;2022-07-21T13:23:07;23.00;99.90
51725;DHT22;37801;53.224;6.552;2022-07-21T13:25:33;22.90;99.90
51725;DHT22;37801;53.224;6.552;2022-07-21T13:28:00;22.80;99.90
51725;DHT22;37801;53.224;6.552;2022-07-21T13:30:26;22.70;99.90
51725;DHT22;37801;53.224;6.552;2022-07-21T13:32:52;22.70;99.90
51725;DHT22;37801;53.224;6.552;2022-07-21T13:35:17;22.70;99.90
51725;DHT22;37801;53.224;6.552;2022-07-21T13:37:43;22.80;99.90
51725;DHT22;37801;53.224;6.552;2022-07-21T13:40:09;22.70;99.90
51725;DHT22;37801;53.224;6.552;2022-07-21T13:42:36;22.70;99.90
51725;DHT22;37801;53.224;6.552;2022-07-21T13:45:02;22.80;99.90
51725;DHT22;37801;53.224;6.552;2022-07-21T13:47:28;22.80;99.90
51725;DHT22;37801;53.224;6.552;2022-07-21T13:49:53;22.80;99.90
51725;DHT22;37801;53.224;6.552;2022-07-21T13:52:19;22.80;99.90
51725;DHT22;37801;53.224;6.552;2022-07-21T13:54:45;22.90;99.90
51725;DHT22;37801;53.224;6.552;2022-07-21T13:57:10;23.00;99.90
51725;DHT22;37801;53.224;6.552;2022-07-21T13:59:36;23.10;99.90
51725;DHT22;37801;53.224;6.552;2022-07-21T14:02:02;23.10;99.90
51725;DHT22;37801;53.224;6.552;2022-07-21T14:04:28;23.20;99.90
51725;DHT22;37801;53.224;6.552;2022-07-21T14:06:54;23.10;99.90
51725;DHT22;37801;53.224;6.552;2022-07-21T14:09:20;23.10;99.90
51725;DHT22;37801;53.224;6.552;2022-07-21T14:11:47;23.20;99.90
51725;DHT22;37801;53.224;6.552;2022-07-21T14:14:13;23.20;99.90
51725;DHT22;37801;53.224;6.552;2022-07-21T14:16:43;23.30;99.90
51725;DHT22;37801;53.224;6.552;2022-07-21T14:19:09;23.30;99.90
51725;DHT22;37801;53.224;6.552;2022-07-21T14:21:35;23.40;99.90
51725;DHT22;37801;53.224;6.552;2022-07-21T14:24:01;23.40;99.90
51725;DHT22;37801;53.224;6.552;2022-07-21T14:26:45;23.30;99.90
51725;DHT22;37801;53.224;6.552;2022-07-21T14:29:11;23.10;99.90
51725;DHT22;37801;53.224;6.552;2022-07-21T14:31:37;23.10;99.90
51725;DHT22;37801;53.224;6.552;2022-07-21T14:34:03;23.00;99.90
51725;DHT22;37801;53.224;6.552;2022-07-21T14:36:28;23.00;99.90
51725;DHT22;37801;53.224;6.552;2022-07-21T14:38:54;22.90;99.90
51725;DHT22;37801;53.224;6.552;2022-07-21T14:41:20;23.00;99.90
51725;DHT22;37801;53.224;6.552;2022-07-21T14:43:45;23.00;99.90
51725;DHT22;37801;53.224;6.552;2022-07-21T14:46:14;23.00;99.90
51725;DHT22;37801;53.224;6.552;2022-07-21T14:48:40;22.90;99.90
51725;DHT22;37801;53.224;6.552;2022-07-21T14:51:06;22.80;99.90
51725;DHT22;37801;53.224;6.552;2022-07-21T14:53:32;22.70;99.90
51725;DHT22;37801;53.224;6.552;2022-07-21T14:55:57;22.70;99.90
51725;DHT22;37801;53.224;6.552;2022-07-21T14:58:23;22.60;99.90
51725;DHT22;37801;53.224;6.552;2022-07-21T15:00:49;22.60;99.90
51725;DHT22;37801;53.224;6.552;2022-07-21T15:03:15;22.50;99.90
51725;DHT22;37801;53.224;6.552;2022-07-21T15:05:41;22.40;99.90
51725;DHT22;37801;53.224;6.552;2022-07-21T15:08:06;22.40;99.90
51725;DHT22;37801;53.224;6.552;2022-07-21T15:10:32;22.30;99.90
51725;DHT22;37801;53.224;6.552;2022-07-21T15:12:58;22.20;99.90
51725;DHT22;37801;53.224;6.552;2022-07-21T15:15:24;22.10;99.90
51725;DHT22;37801;53.224;6.552;2022-07-21T15:17:49;22.10;99.90
51725;DHT22;37801;53.224;6.552;2022-07-21T15:20:15;22.10;99.90
51725;DHT22;37801;53.224;6.552;2022-07-21T15:22:42;22.10;99.90
51725;DHT22;37801;53.224;6.552;2022-07-21T15:25:09;22.10;99.90
51725;DHT22;37801;53.224;6.552;2022-07-21T15:27:39;22.00;99.90
51725;DHT22;37801;53.224;6.552;2022-07-21T15:30:08;22.00;99.90
51725;DHT22;37801;53.224;6.552;2022-07-21T15:32:34;22.00;99.90
51725;DHT22;37801;53.224;6.552;2022-07-21T15:35:01;22.00;99.90
51725;DHT22;37801;53.224;6.552;2022-07-21T15:37:27;21.90;99.90
51725;DHT22;37801;53.224;6.552;2022-07-21T15:39:53;22.00;99.90
51725;DHT22;37801;53.224;6.552;2022-07-21T15:42:19;22.10;99.90
51725;DHT22;37801;53.224;6.552;2022-07-21T15:44:44;22.10;99.90
51725;DHT22;37801;53.224;6.552;2022-07-21T15:47:11;22.20;99.90
51725;DHT22;37801;53.224;6.552;2022-07-21T15:49:37;22.30;99.90
51725;DHT22;37801;53.224;6.552;2022-07-21T15:52:04;22.40;99.90
51725;DHT22;37801;53.224;6.552;2022-07-21T15:54:30;22.50;99.90
51725;DHT22;37801;53.224;6.552;2022-07-21T15:56:57;22.50;99.90
51725;DHT22;37801;53.224;6.552;2022-07-21T15:59:23;22.40;99.90
51725;DHT22;37801;53.224;6.552;2022-07-21T16:02:09;22.40;99.90
51725;DHT22;37801;53.224;6.552;2022-07-21T16:04:36;22.30;99.90
51725;DHT22;37801;53.224;6.552;2022-07-21T16:07:02;22.30;99.90
51725;DHT22;37801;53.224;6.552;2022-07-21T16:09:29;22.20;99.90
51725;DHT22;37801;53.224;6.552;2022-07-21T16:11:55;22.10;99.90
51725;DHT22;37801;53.224;6.552;2022-07-21T16:14:21;22.00;99.90
51725;DHT22;37801;53.224;6.552;2022-07-21T16:16:47;22.10;99.90
51725;DHT22;37801;53.224;6.552;2022-07-21T16:19:13;22.00;99.90